METAR Data
IDs: Format: Raw Decoded Include TAF

Data at: 0035 UTC 26 Oct 2021

PASK 260023Z AUTO 23006KT 9SM -SN OVC030 M02/M05 A2932 RMK AO2 SNB07 P0000 FZRANO
PASK 252356Z AUTO 24009KT 10SM FEW019 OVC028 M02/M04 A2932 RMK AO2 SNE20 SLP925 P0000 60000 T10221044 11022 21072 51004 FZRANO
PASK 252256Z AUTO 23007KT 9SM -SN OVC017 M02/M04 A2931 RMK AO2 SNB47 SLP923 P0000 T10221044 FZRANO
PASK 252156Z AUTO 20003KT 10SM OVC019 M03/M04 A2931 RMK AO2 SLP923 T10331044 FZRANO
PASK 252056Z AUTO 00000KT 10SM OVC021 M04/M05 A2931 RMK AO2 SLP921 T10441050 51007 FZRANO
PASK 251956Z AUTO 13003KT 10SM OVC021 M06/M07 A2930 RMK AO2 SLP919 T10561067 FZRANO
PASK 251856Z AUTO 00000KT 10SM OVC019 M07/M07 A2929 RMK AO2 SLP916 T10671072 FZRANO
PASK 251756Z AUTO 19003KT 10SM OVC025 M07/M08 A2928 RMK AO2 SLP914 T10721078 11056 21094 56000 FZRANO
PASK 251656Z AUTO 00000KT 10SM OVC023 M06/M07 A2928 RMK AO2 SLP914 T10611072 FZRANO
PASK 251556Z AUTO 00000KT 10SM OVC018 M07/M08 A2928 RMK AO2 SLP913 T10671078 FZRANO
PASK 251536Z AUTO 00000KT 10SM OVC016 M07/M08 A2928 RMK AO2 FZRANO
PASK 251509Z AUTO 00000KT 10SM BKN014 BKN019 M08/M09 A2929 RMK AO2 FZRANO
PASK 251456Z AUTO 00000KT 10SM BKN019 M08/M08 A2929 RMK AO2 SLP914 T10781083 56002 FZRANO
PASK 251443Z AUTO 20004KT 10SM BKN019 M07/M08 A2928 RMK AO2 FZRANO
PASK 251356Z AUTO 00000KT 10SM FEW024 M09/M11 A2929 RMK AO2 SLP914 T10941106 FZRANO
PASK 251256Z AUTO 24003KT 10SM FEW019 M07/M07 A2929 RMK AO2 SLP915 T10671072 FZRANO
PASK 251156Z AUTO 08003KT 10SM CLR M07/M08 A2929 RMK AO2 SLP916 T10671078 11039 21067 58007 FZRANO
PASK 250956Z AUTO 11003KT 10SM SCT060 BKN095 M04/M05 A2931 RMK AO2 SLP922 T10391050 FZRANO
PASK 250856Z AUTO 12005KT 10SM OVC095 M04/M06 A2931 RMK AO2 SLP923 T10441056 400111050 56008 FZRANO
PASK 250756Z AUTO 11005KT 10SM SCT095 M05/M06 A2932 RMK AO2 SLP925 T10501061 FZRANO
PASK 250656Z AUTO 15005KT 10SM BKN100 M05/M06 A2932 RMK AO2 SLP927 T10501061 FZRANO
PASK 250621Z AUTO 12006KT 10SM SCT028 BKN100 M04/M06 A2933 RMK AO2 FZRANO
PASK 250556Z AUTO 12006KT 10SM BKN028 M04/M05 A2933 RMK AO2 SLP931 T10391050 10006 21039 56011 FZRANO
PASK 250533Z AUTO 11005KT 10SM BKN028 M04/M05 A2934 RMK AO2 FZRANO
PASK 250526Z AUTO 12005KT 10SM SCT028 M03/M05 A2934 RMK AO2 FZRANO
PASK 250456Z AUTO 11005KT 10SM BKN028 BKN033 M03/M05 A2934 RMK AO2 SLP934 T10281050 FZRANO
PASK 250356Z AUTO 11006KT 10SM BKN030 OVC036 M01/M03 A2935 RMK AO2 SLP937 T10061028 FZRANO
PASK 250256Z AUTO 11005KT 10SM OVC036 M01/M02 A2937 RMK AO2 SLP942 T10061022 56010 FZRANO
PASK 250156Z AUTO 11006KT 10SM OVC034 01/M02 A2938 RMK AO2 SLP945 T00061022 FZRANO
PASK 250056Z AUTO 13004KT 10SM OVC030 01/M02 A2939 RMK AO2 SLP948 T00061017 FZRANO
PASK 242356Z AUTO 12006KT 10SM BKN026 OVC034 01/M01 A2940 RMK AO2 SLP952 60000 T00061011 10011 21022 58007 FZRANO
PASK 242339Z AUTO 13006KT 10SM BKN026 OVC034 01/M02 A2940 RMK AO2 FZRANO
PASK 242256Z AUTO 10004KT 10SM SCT026 OVC038 00/M01 A2940 RMK AO2 SLP954 T00001011 FZRANO
PASK 242213Z AUTO 10004KT 10SM BKN028 OVC039 M01/M01 A2941 RMK AO2 FZRANO
PASK 242156Z AUTO 11004KT 10SM OVC039 M01/M01 A2941 RMK AO2 UPB06E10SNE06 SLP958 P0000 T10061011 FZRANO
PASK 242056Z AUTO 13004KT 9SM -SN OVC033 M01/M02 A2942 RMK AO2 UPB40E44SNE37B44 SLP959 P0000 60000 T10111017 53001 FZRANO
PASK 242018Z AUTO 12004KT 9SM -SN FEW003 SCT027 OVC035 M01/M02 A2942 RMK AO2 P0000 FZRANO
PASK 242004Z AUTO 10003KT 9SM -SN SCT003 BKN027 OVC037 M01/M02 A2941 RMK AO2 P0000 FZRANO
PASK 241956Z AUTO 09004KT 9SM -SN FEW003 SCT021 OVC037 M02/M02 A2941 RMK AO2 SLP958 P0000 T10171022 FZRANO
PASK 241910Z AUTO 09004KT 9SM -SN FEW005 BKN021 OVC035 M02/M03 A2942 RMK AO2 P0000 FZRANO
PASK 241856Z AUTO 08006KT 9SM -SN SCT021 OVC035 M02/M03 A2941 RMK AO2 SLP957 P0000 T10221028 FZRANO
PASK 241828Z AUTO 06003KT 9SM -SN SCT010 OVC041 M02/M03 A2941 RMK AO2 P0000 FZRANO
PASK 241756Z AUTO 08004KT 8SM -SN OVC012 M02/M03 A2942 RMK AO2 SLP958 P0000 60000 T10221028 11011 21022 58003 FZRANO
PASK 241707Z AUTO 08005KT 5SM -SN BR OVC028 M02/M03 A2942 RMK AO2 P0000 FZRANO
PASK 241656Z AUTO 07006KT 4SM -SN BR FEW019 BKN030 OVC044 M02/M03 A2942 RMK AO2 SLP960 P0000 T10221028 FZRANO
PASK 241654Z AUTO 07005KT 4SM -SN BR SCT019 OVC030 M02/M03 A2942 RMK AO2 P0000 FZRANO
PASK 241556Z AUTO 07005KT 9SM -SN OVC021 M02/M03 A2942 RMK AO2 SLP961 P0000 T10221028 FZRANO
PASK 241541Z AUTO 08004KT 9SM -SN BKN021 BKN032 OVC043 M02/M03 A2942 RMK AO2 P0000 FZRANO
PASK 241456Z AUTO 08006KT 6SM -SN BR OVC034 M02/M03 A2942 RMK AO2 SLP960 P0000 60000 T10171033 51002 FZRANO
PASK 241435Z AUTO 08006KT 7SM -SN FEW020 OVC035 M02/M03 A2942 RMK AO2 P0000 FZRANO
PASK 241356Z AUTO 05003KT 6SM -SN BR SCT020 OVC024 M02/M03 A2942 RMK AO2 SLP960 P0000 T10171033 FZRANO
PASK 241349Z AUTO 04003KT 4SM -SN BR BKN024 OVC029 M02/M03 A2942 RMK AO2 P0000 FZRANO
PASK 241336Z AUTO 05004KT 2 1/2SM -SN BR BKN024 OVC029 M02/M03 A2942 RMK AO2 VIS 2V4 P0000 FZRANO
PASK 241310Z AUTO 06004KT 4SM -SN BR SCT024 BKN036 OVC055 M01/M03 A2942 RMK AO2 P0000 FZRANO
PASK 241256Z AUTO 07005KT 5SM -SN BR BKN024 OVC040 M01/M03 A2942 RMK AO2 UPE1159B35E37SNB1159E09B37 SLP959 P0000 T10111028 FZRANO